sensor_id;sensor_type;location;lat;lon;timestamp;temperature;humidity
44219;DHT22;29889;52.034;5.570;2022-07-23T00:00:14;22.20;99.90
44219;DHT22;29889;52.034;5.570;2022-07-23T00:00:45;22.20;99.90
44219;DHT22;29889;52.034;5.570;2022-07-23T00:01:17;22.20;99.90
44219;DHT22;29889;52.034;5.570;2022-07-23T00:01:47;22.20;99.90
44219;DHT22;29889;52.034;5.570;2022-07-23T00:02:18;22.20;99.90
44219;DHT22;29889;52.034;5.570;2022-07-23T00:02:48;22.20;99.90
44219;DHT22;29889;52.034;5.570;2022-07-23T00:03:19;22.20;99.90
44219;DHT22;29889;52.034;5.570;2022-07-23T00:03:50;22.20;99.90
44219;DHT22;29889;52.034;5.570;2022-07-23T00:04:22;22.10;99.90
44219;DHT22;29889;52.034;5.570;2022-07-23T00:04:52;22.20;99.90
44219;DHT22;29889;52.034;5.570;2022-07-23T00:05:23;22.10;99.90
44219;DHT22;29889;52.034;5.570;2022-07-23T00:05:53;22.10;99.90
44219;DHT22;29889;52.034;5.570;2022-07-23T00:06:24;22.10;99.90
44219;DHT22;29889;52.034;5.570;2022-07-23T00:06:55;22.10;99.90
44219;DHT22;29889;52.034;5.570;2022-07-23T00:07:25;22.10;99.90
44219;DHT22;29889;52.034;5.570;2022-07-23T00:07:56;22.10;99.90
44219;DHT22;29889;52.034;5.570;2022-07-23T00:08:26;22.10;99.90
44219;DHT22;29889;52.034;5.570;2022-07-23T00:08:57;22.10;99.90
44219;DHT22;29889;52.034;5.570;2022-07-23T00:09:27;22.10;99.90
44219;DHT22;29889;52.034;5.570;2022-07-23T00:10:01;22.10;99.90
44219;DHT22;29889;52.034;5.570;2022-07-23T00:10:32;22.10;99.90
44219;DHT22;29889;52.034;5.570;2022-07-23T00:11:03;22.10;99.90
44219;DHT22;29889;52.034;5.570;2022-07-23T00:11:33;22.10;99.90
44219;DHT22;29889;52.034;5.570;2022-07-23T00:12:04;22.00;99.90
44219;DHT22;29889;52.034;5.570;2022-07-23T00:12:35;22.00;99.90
44219;DHT22;29889;52.034;5.570;2022-07-23T00:13:06;22.00;99.90
44219;DHT22;29889;52.034;5.570;2022-07-23T00:13:37;22.00;99.90
44219;DHT22;29889;52.034;5.570;2022-07-23T00:14:07;22.00;99.90
44219;DHT22;29889;52.034;5.570;2022-07-23T00:14:38;22.00;99.90
44219;DHT22;29889;52.034;5.570;2022-07-23T00:15:10;22.00;99.90
44219;DHT22;29889;52.034;5.570;2022-07-23T00:15:40;22.00;99.90
44219;DHT22;29889;52.034;5.570;2022-07-23T00:16:11;22.00;99.90
44219;DHT22;29889;52.034;5.570;2022-07-23T00:16:42;22.00;99.90
44219;DHT22;29889;52.034;5.570;2022-07-23T00:17:12;22.00;99.90
44219;DHT22;29889;52.034;5.570;2022-07-23T00:17:43;22.00;99.90
44219;DHT22;29889;52.034;5.570;2022-07-23T00:18:13;22.00;99.90
44219;DHT22;29889;52.034;5.570;2022-07-23T00:18:44;22.00;99.90
44219;DHT22;29889;52.034;5.570;2022-07-23T00:19:14;22.00;99.90
44219;DHT22;29889;52.034;5.570;2022-07-23T00:19:45;22.00;99.90
44219;DHT22;29889;52.034;5.570;2022-07-23T00:20:15;22.00;99.90
44219;DHT22;29889;52.034;5.570;2022-07-23T00:20:46;22.00;99.90
44219;DHT22;29889;52.034;5.570;2022-07-23T00:21:17;22.00;99.90
44219;DHT22;29889;52.034;5.570;2022-07-23T00:21:47;22.00;99.90
44219;DHT22;29889;52.034;5.570;2022-07-23T00:22:18;22.00;99.90
44219;DHT22;29889;52.034;5.570;2022-07-23T00:22:50;22.00;99.90
44219;DHT22;29889;52.034;5.570;2022-07-23T00:23:21;22.00;99.90
44219;DHT22;29889;52.034;5.570;2022-07-23T00:23:52;22.00;99.90
44219;DHT22;29889;52.034;5.570;2022-07-23T00:24:22;22.00;99.90
44219;DHT22;29889;52.034;5.570;2022-07-23T00:24:53;22.00;99.90
44219;DHT22;29889;52.034;5.570;2022-07-23T00:25:23;22.00;99.90
44219;DHT22;29889;52.034;5.570;2022-07-23T00:25:54;22.00;99.90
44219;DHT22;29889;52.034;5.570;2022-07-23T00:26:25;22.00;99.90
44219;DHT22;29889;52.034;5.570;2022-07-23T00:26:56;22.00;99.90
44219;DHT22;29889;52.034;5.570;2022-07-23T00:27:26;22.00;99.90
44219;DHT22;29889;52.034;5.570;2022-07-23T00:28:00;22.00;99.90
44219;DHT22;29889;52.034;5.570;2022-07-23T00:28:31;22.00;99.90
44219;DHT22;29889;52.034;5.570;2022-07-23T00:29:01;22.00;99.90
44219;DHT22;29889;52.034;5.570;2022-07-23T00:29:32;22.00;99.90
44219;DHT22;29889;52.034;5.570;2022-07-23T00:30:03;22.00;99.90
44219;DHT22;29889;52.034;5.570;2022-07-23T00:30:34;22.00;99.90
44219;DHT22;29889;52.034;5.570;2022-07-23T00:31:04;22.00;99.90
44219;DHT22;29889;52.034;5.570;2022-07-23T00:31:35;22.00;99.90
44219;DHT22;29889;52.034;5.570;2022-07-23T00:32:06;22.00;99.90
44219;DHT22;29889;52.034;5.570;2022-07-23T00:33:00;22.00;99.90
44219;DHT22;29889;52.034;5.570;2022-07-23T00:33:31;22.00;99.90
44219;DHT22;29889;52.034;5.570;2022-07-23T00:34:02;22.00;99.90
44219;DHT22;29889;52.034;5.570;2022-07-23T00:34:32;22.00;99.90
44219;DHT22;29889;52.034;5.570;2022-07-23T00:35:03;22.00;99.90
44219;DHT22;29889;52.034;5.570;2022-07-23T00:35:37;22.00;99.90
44219;DHT22;29889;52.034;5.570;2022-07-23T00:36:10;22.00;99.90
44219;DHT22;29889;52.034;5.570;2022-07-23T00:36:41;21.90;99.90
44219;DHT22;29889;52.034;5.570;2022-07-23T00:37:11;22.00;99.90
44219;DHT22;29889;52.034;5.570;2022-07-23T00:37:42;21.90;99.90
44219;DHT22;29889;52.034;5.570;2022-07-23T00:38:13;21.90;99.90
44219;DHT22;29889;52.034;5.570;2022-07-23T00:38:43;21.90;99.90
44219;DHT22;29889;52.034;5.570;2022-07-23T00:39:14;21.90;99.90
44219;DHT22;29889;52.034;5.570;2022-07-23T00:39:44;21.90;99.90
44219;DHT22;29889;52.034;5.570;2022-07-23T00:40:15;21.90;99.90
44219;DHT22;29889;52.034;5.570;2022-07-23T00:40:46;21.90;99.90
44219;DHT22;29889;52.034;5.570;2022-07-23T00:41:16;21.90;99.90
44219;DHT22;29889;52.034;5.570;2022-07-23T00:41:48;21.90;99.90
44219;DHT22;29889;52.034;5.570;2022-07-23T00:42:18;21.90;99.90
44219;DHT22;29889;52.034;5.570;2022-07-23T00:42:49;21.90;99.90
44219;DHT22;29889;52.034;5.570;2022-07-23T00:43:20;21.90;99.90
44219;DHT22;29889;52.034;5.570;2022-07-23T00:43:52;21.90;99.90
44219;DHT22;29889;52.034;5.570;2022-07-23T00:44:25;21.90;99.90
44219;DHT22;29889;52.034;5.570;2022-07-23T00:44:55;21.90;99.90
44219;DHT22;29889;52.034;5.570;2022-07-23T00:45:27;21.90;99.90
44219;DHT22;29889;52.034;5.570;2022-07-23T00:45:58;21.90;99.90
44219;DHT22;29889;52.034;5.570;2022-07-23T00:46:28;21.80;99.90
44219;DHT22;29889;52.034;5.570;2022-07-23T00:46:59;21.90;99.90
44219;DHT22;29889;52.034;5.570;2022-07-23T00:47:30;21.90;99.90
44219;DHT22;29889;52.034;5.570;2022-07-23T00:48:00;21.90;99.90
44219;DHT22;29889;52.034;5.570;2022-07-23T00:48:31;21.90;99.90
44219;DHT22;29889;52.034;5.570;2022-07-23T00:49:02;21.90;99.90
44219;DHT22;29889;52.034;5.570;2022-07-23T00:49:32;21.80;99.90
44219;DHT22;29889;52.034;5.570;2022-07-23T00:50:05;21.90;99.90
44219;DHT22;29889;52.034;5.570;2022-07-23T00:50:36;21.90;99.90
44219;DHT22;29889;52.034;5.570;2022-07-23T00:51:06;21.90;99.90
44219;DHT22;29889;52.034;5.570;2022-07-23T00:51:37;21.80;99.90
44219;DHT22;29889;52.034;5.570;2022-07-23T00:52:07;21.80;99.90
44219;DHT22;29889;52.034;5.570;2022-07-23T00:52:39;21.80;99.90
44219;DHT22;29889;52.034;5.570;2022-07-23T00:53:10;21.80;99.90
44219;DHT22;29889;52.034;5.570;2022-07-23T00:53:41;21.80;99.90
44219;DHT22;29889;52.034;5.570;2022-07-23T00:54:12;21.80;99.90
44219;DHT22;29889;52.034;5.570;2022-07-23T00:54:42;21.80;99.90
44219;DHT22;29889;52.034;5.570;2022-07-23T00:55:14;21.80;99.90
44219;DHT22;29889;52.034;5.570;2022-07-23T00:55:45;21.80;99.90
44219;DHT22;29889;52.034;5.570;2022-07-23T00:56:15;21.80;99.90
44219;DHT22;29889;52.034;5.570;2022-07-23T00:56:46;21.80;99.90
44219;DHT22;29889;52.034;5.570;2022-07-23T00:57:17;21.80;99.90
44219;DHT22;29889;52.034;5.570;2022-07-23T00:57:49;21.80;99.90
44219;DHT22;29889;52.034;5.570;2022-07-23T00:58:20;21.80;99.90
44219;DHT22;29889;52.034;5.570;2022-07-23T00:58:51;21.80;99.90
44219;DHT22;29889;52.034;5.570;2022-07-23T00:59:22;21.80;99.90
44219;DHT22;29889;52.034;5.570;2022-07-23T00:59:52;21.80;99.90
44219;DHT22;29889;52.034;5.570;2022-07-23T01:00:23;21.80;99.90
44219;DHT22;29889;52.034;5.570;2022-07-23T01:00:54;21.80;99.90
44219;DHT22;29889;52.034;5.570;2022-07-23T01:01:24;21.80;99.90
44219;DHT22;29889;52.034;5.570;2022-07-23T01:01:55;21.80;99.90
44219;DHT22;29889;52.034;5.570;2022-07-23T01:02:26;21.80;99.90
44219;DHT22;29889;52.034;5.570;2022-07-23T01:02:57;21.80;99.90
44219;DHT22;29889;52.034;5.570;2022-07-23T01:03:28;21.80;99.90
44219;DHT22;29889;52.034;5.570;2022-07-23T01:03:58;21.80;99.90
44219;DHT22;29889;52.034;5.570;2022-07-23T01:04:29;21.80;99.90
44219;DHT22;29889;52.034;5.570;2022-07-23T01:05:00;21.80;99.90
44219;DHT22;29889;52.034;5.570;2022-07-23T01:05:30;21.80;99.90
44219;DHT22;29889;52.034;5.570;2022-07-23T01:06:01;21.80;99.90
44219;DHT22;29889;52.034;5.570;2022-07-23T01:06:35;21.80;99.90
44219;DHT22;29889;52.034;5.570;2022-07-23T01:07:07;21.80;99.90
44219;DHT22;29889;52.034;5.570;2022-07-23T01:07:38;21.80;99.90
44219;DHT22;29889;52.034;5.570;2022-07-23T01:08:08;21.80;99.90
44219;DHT22;29889;52.034;5.570;2022-07-23T01:08:39;21.80;99.90
44219;DHT22;29889;52.034;5.570;2022-07-23T01:09:09;21.80;99.90
44219;DHT22;29889;52.034;5.570;2022-07-23T01:09:40;21.80;99.90
44219;DHT22;29889;52.034;5.570;2022-07-23T01:10:10;21.80;99.90
44219;DHT22;29889;52.034;5.570;2022-07-23T01:11:00;21.80;99.90
44219;DHT22;29889;52.034;5.570;2022-07-23T01:11:36;21.80;99.90
44219;DHT22;29889;52.034;5.570;2022-07-23T01:12:07;21.80;99.90
44219;DHT22;29889;52.034;5.570;2022-07-23T01:12:37;21.80;99.90
44219;DHT22;29889;52.034;5.570;2022-07-23T01:13:09;21.80;99.90
44219;DHT22;29889;52.034;5.570;2022-07-23T01:13:43;21.80;99.90
44219;DHT22;29889;52.034;5.570;2022-07-23T01:14:16;21.80;99.90
44219;DHT22;29889;52.034;5.570;2022-07-23T01:14:57;21.80;99.90
44219;DHT22;29889;52.034;5.570;2022-07-23T01:15:28;21.80;99.90
44219;DHT22;29889;52.034;5.570;2022-07-23T01:15:59;21.80;99.90
44219;DHT22;29889;52.034;5.570;2022-07-23T01:16:30;21.80;99.90
44219;DHT22;29889;52.034;5.570;2022-07-23T01:17:00;21.80;99.90
44219;DHT22;29889;52.034;5.570;2022-07-23T01:17:31;21.80;99.90
44219;DHT22;29889;52.034;5.570;2022-07-23T01:18:03;21.80;99.90
44219;DHT22;29889;52.034;5.570;2022-07-23T01:18:34;21.80;99.90
44219;DHT22;29889;52.034;5.570;2022-07-23T01:19:05;21.80;99.90
44219;DHT22;29889;52.034;5.570;2022-07-23T01:19:36;21.80;99.90
44219;DHT22;29889;52.034;5.570;2022-07-23T01:20:07;21.80;99.90
44219;DHT22;29889;52.034;5.570;2022-07-23T01:20:38;21.70;99.90
44219;DHT22;29889;52.034;5.570;2022-07-23T01:21:12;21.70;99.90
44219;DHT22;29889;52.034;5.570;2022-07-23T01:21:50;21.70;99.90
44219;DHT22;29889;52.034;5.570;2022-07-23T01:22:22;21.70;99.90
44219;DHT22;29889;52.034;5.570;2022-07-23T01:22:53;21.70;99.90
44219;DHT22;29889;52.034;5.570;2022-07-23T01:23:24;21.70;99.90
44219;DHT22;29889;52.034;5.570;2022-07-23T01:23:54;21.70;99.90
44219;DHT22;29889;52.034;5.570;2022-07-23T01:24:25;21.70;99.90
44219;DHT22;29889;52.034;5.570;2022-07-23T01:24:55;21.70;99.90
44219;DHT22;29889;52.034;5.570;2022-07-23T01:25:26;21.70;99.90
44219;DHT22;29889;52.034;5.570;2022-07-23T01:25:57;21.70;99.90
44219;DHT22;29889;52.034;5.570;2022-07-23T01:26:27;21.70;99.90
44219;DHT22;29889;52.034;5.570;2022-07-23T01:26:58;21.70;99.90
44219;DHT22;29889;52.034;5.570;2022-07-23T01:27:28;21.70;99.90
44219;DHT22;29889;52.034;5.570;2022-07-23T01:27:59;21.70;99.90
44219;DHT22;29889;52.034;5.570;2022-07-23T01:28:30;21.70;99.90
44219;DHT22;29889;52.034;5.570;2022-07-23T01:29:00;21.70;99.90
44219;DHT22;29889;52.034;5.570;2022-07-23T01:29:31;21.70;99.90
44219;DHT22;29889;52.034;5.570;2022-07-23T01:30:03;21.70;99.90
44219;DHT22;29889;52.034;5.570;2022-07-23T01:30:34;21.70;99.90
44219;DHT22;29889;52.034;5.570;2022-07-23T01:31:04;21.70;99.90
44219;DHT22;29889;52.034;5.570;2022-07-23T01:31:35;21.70;99.90
44219;DHT22;29889;52.034;5.570;2022-07-23T01:32:06;21.70;99.90
44219;DHT22;29889;52.034;5.570;2022-07-23T01:32:36;21.70;99.90
44219;DHT22;29889;52.034;5.570;2022-07-23T01:33:07;21.60;99.90
44219;DHT22;29889;52.034;5.570;2022-07-23T01:33:38;21.60;99.90
44219;DHT22;29889;52.034;5.570;2022-07-23T01:34:09;21.60;99.90
44219;DHT22;29889;52.034;5.570;2022-07-23T01:34:40;21.60;99.90
44219;DHT22;29889;52.034;5.570;2022-07-23T01:35:11;21.60;99.90
44219;DHT22;29889;52.034;5.570;2022-07-23T01:35:42;21.60;99.90
44219;DHT22;29889;52.034;5.570;2022-07-23T01:36:12;21.60;99.90
44219;DHT22;29889;52.034;5.570;2022-07-23T01:36:43;21.70;99.90
44219;DHT22;29889;52.034;5.570;2022-07-23T01:37:14;21.60;99.90
44219;DHT22;29889;52.034;5.570;2022-07-23T01:37:44;21.60;99.90
44219;DHT22;29889;52.034;5.570;2022-07-23T01:38:15;21.60;99.90
44219;DHT22;29889;52.034;5.570;2022-07-23T01:38:45;21.60;99.90
44219;DHT22;29889;52.034;5.570;2022-07-23T01:39:16;21.70;99.90
44219;DHT22;29889;52.034;5.570;2022-07-23T01:39:47;21.60;99.90
44219;DHT22;29889;52.034;5.570;2022-07-23T01:40:17;21.70;99.90
44219;DHT22;29889;52.034;5.570;2022-07-23T01:40:48;21.70;99.90
44219;DHT22;29889;52.034;5.570;2022-07-23T01:41:18;21.70;99.90
44219;DHT22;29889;52.034;5.570;2022-07-23T01:41:49;21.70;99.90
44219;DHT22;29889;52.034;5.570;2022-07-23T01:42:20;21.70;99.90
44219;DHT22;29889;52.034;5.570;2022-07-23T01:42:51;21.70;99.90
44219;DHT22;29889;52.034;5.570;2022-07-23T01:43:21;21.70;99.90
44219;DHT22;29889;52.034;5.570;2022-07-23T01:43:52;21.70;99.90
44219;DHT22;29889;52.034;5.570;2022-07-23T01:44:22;21.70;99.90
44219;DHT22;29889;52.034;5.570;2022-07-23T01:44:53;21.70;99.90
44219;DHT22;29889;52.034;5.570;2022-07-23T01:45:23;21.70;99.90
44219;DHT22;29889;52.034;5.570;2022-07-23T01:45:54;21.70;99.90
44219;DHT22;29889;52.034;5.570;2022-07-23T01:46:25;21.70;99.90
44219;DHT22;29889;52.034;5.570;2022-07-23T01:46:56;21.70;99.90
44219;DHT22;29889;52.034;5.570;2022-07-23T01:47:27;21.70;99.90
44219;DHT22;29889;52.034;5.570;2022-07-23T01:47:57;21.70;99.90
44219;DHT22;29889;52.034;5.570;2022-07-23T01:48:28;21.70;99.90
44219;DHT22;29889;52.034;5.570;2022-07-23T01:48:59;21.70;99.90
44219;DHT22;29889;52.034;5.570;2022-07-23T01:49:30;21.70;99.90
44219;DHT22;29889;52.034;5.570;2022-07-23T01:50:00;21.60;99.90
44219;DHT22;29889;52.034;5.570;2022-07-23T01:50:31;21.60;99.90
44219;DHT22;29889;52.034;5.570;2022-07-23T01:51:01;21.60;99.90
44219;DHT22;29889;52.034;5.570;2022-07-23T01:51:32;21.60;99.90
44219;DHT22;29889;52.034;5.570;2022-07-23T01:52:03;21.60;99.90
44219;DHT22;29889;52.034;5.570;2022-07-23T01:52:36;21.60;99.90
44219;DHT22;29889;52.034;5.570;2022-07-23T01:53:07;21.60;99.90
44219;DHT22;29889;52.034;5.570;2022-07-23T01:53:38;21.60;99.90
44219;DHT22;29889;52.034;5.570;2022-07-23T01:54:09;21.60;99.90
44219;DHT22;29889;52.034;5.570;2022-07-23T01:54:39;21.60;99.90
44219;DHT22;29889;52.034;5.570;2022-07-23T01:55:10;21.60;99.90
44219;DHT22;29889;52.034;5.570;2022-07-23T01:55:42;21.60;99.90
44219;DHT22;29889;52.034;5.570;2022-07-23T01:56:12;21.60;99.90
44219;DHT22;29889;52.034;5.570;2022-07-23T01:56:45;21.60;99.90
44219;DHT22;29889;52.034;5.570;2022-07-23T01:57:15;21.60;99.90
44219;DHT22;29889;52.034;5.570;2022-07-23T01:57:46;21.50;99.90
44219;DHT22;29889;52.034;5.570;2022-07-23T01:58:17;21.50;99.90
44219;DHT22;29889;52.034;5.570;2022-07-23T01:58:48;21.50;99.90
44219;DHT22;29889;52.034;5.570;2022-07-23T01:59:19;21.50;99.90
44219;DHT22;29889;52.034;5.570;2022-07-23T01:59:50;21.50;99.90
44219;DHT22;29889;52.034;5.570;2022-07-23T02:00:20;21.50;99.90
44219;DHT22;29889;52.034;5.570;2022-07-23T02:00:51;21.50;99.90
44219;DHT22;29889;52.034;5.570;2022-07-23T02:01:22;21.50;99.90
44219;DHT22;29889;52.034;5.570;2022-07-23T02:01:53;21.50;99.90
44219;DHT22;29889;52.034;5.570;2022-07-23T02:02:24;21.50;99.90
44219;DHT22;29889;52.034;5.570;2022-07-23T02:02:54;21.50;99.90
44219;DHT22;29889;52.034;5.570;2022-07-23T02:03:25;21.50;99.90
44219;DHT22;29889;52.034;5.570;2022-07-23T02:03:56;21.50;99.90
44219;DHT22;29889;52.034;5.570;2022-07-23T02:04:26;21.50;99.90
44219;DHT22;29889;52.034;5.570;2022-07-23T02:04:57;21.50;99.90
44219;DHT22;29889;52.034;5.570;2022-07-23T02:05:28;21.50;99.90
44219;DHT22;29889;52.034;5.570;2022-07-23T02:06:04;21.50;99.90
44219;DHT22;29889;52.034;5.570;2022-07-23T02:06:36;21.50;99.90
44219;DHT22;29889;52.034;5.570;2022-07-23T02:07:06;21.50;99.90
44219;DHT22;29889;52.034;5.570;2022-07-23T02:07:37;21.50;99.90
44219;DHT22;29889;52.034;5.570;2022-07-23T02:08:08;21.50;99.90
44219;DHT22;29889;52.034;5.570;2022-07-23T02:08:38;21.50;99.90
44219;DHT22;29889;52.034;5.570;2022-07-23T02:09:09;21.50;99.90
44219;DHT22;29889;52.034;5.570;2022-07-23T02:09:40;21.40;99.90
44219;DHT22;29889;52.034;5.570;2022-07-23T02:10:11;21.50;99.90
44219;DHT22;29889;52.034;5.570;2022-07-23T02:10:42;21.40;99.90
44219;DHT22;29889;52.034;5.570;2022-07-23T02:11:12;21.40;99.90
44219;DHT22;29889;52.034;5.570;2022-07-23T02:11:43;21.50;99.90
44219;DHT22;29889;52.034;5.570;2022-07-23T02:12:14;21.40;99.90
44219;DHT22;29889;52.034;5.570;2022-07-23T02:12:44;21.40;99.90
44219;DHT22;29889;52.034;5.570;2022-07-23T02:13:15;21.40;99.90
44219;DHT22;29889;52.034;5.570;2022-07-23T02:13:46;21.40;99.90
44219;DHT22;29889;52.034;5.570;2022-07-23T02:14:17;21.40;99.90
44219;DHT22;29889;52.034;5.570;2022-07-23T02:14:48;21.40;99.90
44219;DHT22;29889;52.034;5.570;2022-07-23T02:15:19;21.40;99.90
44219;DHT22;29889;52.034;5.570;2022-07-23T02:15:49;21.40;99.90
44219;DHT22;29889;52.034;5.570;2022-07-23T02:16:20;21.40;99.90
44219;DHT22;29889;52.034;5.570;2022-07-23T02:16:51;21.40;99.90
44219;DHT22;29889;52.034;5.570;2022-07-23T02:17:22;21.40;99.90
44219;DHT22;29889;52.034;5.570;2022-07-23T02:17:52;21.40;99.90
44219;DHT22;29889;52.034;5.570;2022-07-23T02:18:23;21.40;99.90
44219;DHT22;29889;52.034;5.570;2022-07-23T02:18:53;21.40;99.90
44219;DHT22;29889;52.034;5.570;2022-07-23T02:19:24;21.40;99.90
44219;DHT22;29889;52.034;5.570;2022-07-23T02:19:55;21.40;99.90
44219;DHT22;29889;52.034;5.570;2022-07-23T02:20:25;21.50;99.90
44219;DHT22;29889;52.034;5.570;2022-07-23T02:20:56;21.40;99.90
44219;DHT22;29889;52.034;5.570;2022-07-23T02:21:27;21.40;99.90
44219;DHT22;29889;52.034;5.570;2022-07-23T02:21:57;21.50;99.90
44219;DHT22;29889;52.034;5.570;2022-07-23T02:22:28;21.50;99.90
44219;DHT22;29889;52.034;5.570;2022-07-23T02:22:58;21.50;99.90
44219;DHT22;29889;52.034;5.570;2022-07-23T02:23:29;21.50;99.90
44219;DHT22;29889;52.034;5.570;2022-07-23T02:23:59;21.50;99.90
44219;DHT22;29889;52.034;5.570;2022-07-23T02:24:30;21.50;99.90
44219;DHT22;29889;52.034;5.570;2022-07-23T02:25:01;21.50;99.90
44219;DHT22;29889;52.034;5.570;2022-07-23T02:25:31;21.50;99.90
44219;DHT22;29889;52.034;5.570;2022-07-23T02:26:02;21.50;99.90
44219;DHT22;29889;52.034;5.570;2022-07-23T02:26:32;21.50;99.90
44219;DHT22;29889;52.034;5.570;2022-07-23T02:27:04;21.50;99.90
44219;DHT22;29889;52.034;5.570;2022-07-23T02:27:36;21.40;99.90
44219;DHT22;29889;52.034;5.570;2022-07-23T02:28:06;21.40;99.90
44219;DHT22;29889;52.034;5.570;2022-07-23T02:28:37;21.40;99.90
44219;DHT22;29889;52.034;5.570;2022-07-23T02:29:07;21.40;99.90
44219;DHT22;29889;52.034;5.570;2022-07-23T02:29:38;21.40;99.90
44219;DHT22;29889;52.034;5.570;2022-07-23T02:30:09;21.40;99.90
44219;DHT22;29889;52.034;5.570;2022-07-23T02:30:41;21.40;99.90
44219;DHT22;29889;52.034;5.570;2022-07-23T02:31:11;21.40;99.90
44219;DHT22;29889;52.034;5.570;2022-07-23T02:31:43;21.40;99.90
44219;DHT22;29889;52.034;5.570;2022-07-23T02:32:14;21.40;99.90
44219;DHT22;29889;52.034;5.570;2022-07-23T02:32:44;21.40;99.90
44219;DHT22;29889;52.034;5.570;2022-07-23T02:33:15;21.40;99.90
44219;DHT22;29889;52.034;5.570;2022-07-23T02:33:46;21.40;99.90
44219;DHT22;29889;52.034;5.570;2022-07-23T02:34:17;21.40;99.90
44219;DHT22;29889;52.034;5.570;2022-07-23T02:34:48;21.40;99.90
44219;DHT22;29889;52.034;5.570;2022-07-23T02:35:18;21.40;99.90
44219;DHT22;29889;52.034;5.570;2022-07-23T02:35:49;21.40;99.90
44219;DHT22;29889;52.034;5.570;2022-07-23T02:36:19;21.30;99.90
44219;DHT22;29889;52.034;5.570;2022-07-23T02:36:50;21.40;99.90
44219;DHT22;29889;52.034;5.570;2022-07-23T02:37:20;21.40;99.90
44219;DHT22;29889;52.034;5.570;2022-07-23T02:37:51;21.40;99.90
44219;DHT22;29889;52.034;5.570;2022-07-23T02:38:22;21.40;99.90
44219;DHT22;29889;52.034;5.570;2022-07-23T02:38:52;21.30;99.90
44219;DHT22;29889;52.034;5.570;2022-07-23T02:39:23;21.30;99.90
44219;DHT22;29889;52.034;5.570;2022-07-23T02:39:54;21.30;99.90
44219;DHT22;29889;52.034;5.570;2022-07-23T02:40:24;21.30;99.90
44219;DHT22;29889;52.034;5.570;2022-07-23T02:40:55;21.30;99.90
44219;DHT22;29889;52.034;5.570;2022-07-23T02:41:25;21.30;99.90
44219;DHT22;29889;52.034;5.570;2022-07-23T02:41:56;21.30;99.90
44219;DHT22;29889;52.034;5.570;2022-07-23T02:42:26;21.30;99.90
44219;DHT22;29889;52.034;5.570;2022-07-23T02:42:57;21.30;99.90
44219;DHT22;29889;52.034;5.570;2022-07-23T02:43:27;21.30;99.90
44219;DHT22;29889;52.034;5.570;2022-07-23T02:43:59;21.30;99.90
44219;DHT22;29889;52.034;5.570;2022-07-23T02:44:29;21.30;99.90
44219;DHT22;29889;52.034;5.570;2022-07-23T02:45:00;21.30;99.90
44219;DHT22;29889;52.034;5.570;2022-07-23T02:45:30;21.30;99.90
44219;DHT22;29889;52.034;5.570;2022-07-23T02:46:01;21.30;99.90
44219;DHT22;29889;52.034;5.570;2022-07-23T02:46:32;21.30;99.90
44219;DHT22;29889;52.034;5.570;2022-07-23T02:47:02;21.30;99.90
44219;DHT22;29889;52.034;5.570;2022-07-23T02:47:33;21.20;99.90
44219;DHT22;29889;52.034;5.570;2022-07-23T02:48:04;21.30;99.90
44219;DHT22;29889;52.034;5.570;2022-07-23T02:48:34;21.20;99.90
44219;DHT22;29889;52.034;5.570;2022-07-23T02:49:05;21.20;99.90
44219;DHT22;29889;52.034;5.570;2022-07-23T02:49:35;21.30;99.90
44219;DHT22;29889;52.034;5.570;2022-07-23T02:50:07;21.20;99.90
44219;DHT22;29889;52.034;5.570;2022-07-23T02:50:38;21.20;99.90
44219;DHT22;29889;52.034;5.570;2022-07-23T02:51:08;21.20;99.90
44219;DHT22;29889;52.034;5.570;2022-07-23T02:51:39;21.20;99.90
44219;DHT22;29889;52.034;5.570;2022-07-23T02:52:09;21.20;99.90
44219;DHT22;29889;52.034;5.570;2022-07-23T02:52:41;21.20;99.90
44219;DHT22;29889;52.034;5.570;2022-07-23T02:53:13;21.20;99.90
44219;DHT22;29889;52.034;5.570;2022-07-23T02:53:43;21.20;99.90
44219;DHT22;29889;52.034;5.570;2022-07-23T02:54:14;21.20;99.90
44219;DHT22;29889;52.034;5.570;2022-07-23T02:54:44;21.20;99.90
44219;DHT22;29889;52.034;5.570;2022-07-23T02:55:15;21.20;99.90
44219;DHT22;29889;52.034;5.570;2022-07-23T02:55:45;21.20;99.90
44219;DHT22;29889;52.034;5.570;2022-07-23T02:56:16;21.30;99.90
44219;DHT22;29889;52.034;5.570;2022-07-23T02:56:46;21.30;99.90
44219;DHT22;29889;52.034;5.570;2022-07-23T02:57:17;21.30;99.90
44219;DHT22;29889;52.034;5.570;2022-07-23T02:57:47;21.30;99.90
44219;DHT22;29889;52.034;5.570;2022-07-23T02:58:18;21.20;99.90
44219;DHT22;29889;52.034;5.570;2022-07-23T02:58:48;21.30;99.90
44219;DHT22;29889;52.034;5.570;2022-07-23T02:59:19;21.30;99.90
44219;DHT22;29889;52.034;5.570;2022-07-23T02:59:50;21.30;99.90
44219;DHT22;29889;52.034;5.570;2022-07-23T03:00:20;21.30;99.90
44219;DHT22;29889;52.034;5.570;2022-07-23T03:00:51;21.30;99.90
44219;DHT22;29889;52.034;5.570;2022-07-23T03:01:21;21.30;99.90
44219;DHT22;29889;52.034;5.570;2022-07-23T03:01:52;21.30;99.90
44219;DHT22;29889;52.034;5.570;2022-07-23T03:02:22;21.30;99.90
44219;DHT22;29889;52.034;5.570;2022-07-23T03:02:53;21.30;99.90
44219;DHT22;29889;52.034;5.570;2022-07-23T03:03:24;21.30;99.90
44219;DHT22;29889;52.034;5.570;2022-07-23T03:03:54;21.30;99.90
44219;DHT22;29889;52.034;5.570;2022-07-23T03:04:25;21.30;99.90
44219;DHT22;29889;52.034;5.570;2022-07-23T03:04:55;21.30;99.90
44219;DHT22;29889;52.034;5.570;2022-07-23T03:05:26;21.30;99.90
44219;DHT22;29889;52.034;5.570;2022-07-23T03:05:56;21.20;99.90
44219;DHT22;29889;52.034;5.570;2022-07-23T03:06:27;21.30;99.90
44219;DHT22;29889;52.034;5.570;2022-07-23T03:06:58;21.30;99.90
44219;DHT22;29889;52.034;5.570;2022-07-23T03:07:28;21.20;99.90
44219;DHT22;29889;52.034;5.570;2022-07-23T03:07:59;21.20;99.90
44219;DHT22;29889;52.034;5.570;2022-07-23T03:08:29;21.20;99.90
44219;DHT22;29889;52.034;5.570;2022-07-23T03:09:00;21.20;99.90
44219;DHT22;29889;52.034;5.570;2022-07-23T03:09:30;21.20;99.90
44219;DHT22;29889;52.034;5.570;2022-07-23T03:10:01;21.20;99.90
44219;DHT22;29889;52.034;5.570;2022-07-23T03:10:32;21.20;99.90
44219;DHT22;29889;52.034;5.570;2022-07-23T03:11:02;21.20;99.90
44219;DHT22;29889;52.034;5.570;2022-07-23T03:11:33;21.20;99.90
44219;DHT22;29889;52.034;5.570;2022-07-23T03:12:04;21.20;99.90
44219;DHT22;29889;52.034;5.570;2022-07-23T03:12:34;21.20;99.90
44219;DHT22;29889;52.034;5.570;2022-07-23T03:13:05;21.10;99.90
44219;DHT22;29889;52.034;5.570;2022-07-23T03:13:35;21.20;99.90
44219;DHT22;29889;52.034;5.570;2022-07-23T03:14:06;21.20;99.90
44219;DHT22;29889;52.034;5.570;2022-07-23T03:14:37;21.20;99.90
44219;DHT22;29889;52.034;5.570;2022-07-23T03:15:09;21.20;99.90
44219;DHT22;29889;52.034;5.570;2022-07-23T03:15:40;21.10;99.90